sensor_id;sensor_type;location;lat;lon;timestamp;temperature;humidity
69595;DHT22;56800;52.142;5.364;2023-11-21T00:01:06;8.70;85.20
69595;DHT22;56800;52.142;5.364;2023-11-21T00:03:35;8.70;85.20
69595;DHT22;56800;52.142;5.364;2023-11-21T00:06:03;8.70;85.20
69595;DHT22;56800;52.142;5.364;2023-11-21T00:08:29;8.70;85.20
69595;DHT22;56800;52.142;5.364;2023-11-21T00:10:56;8.60;85.10
69595;DHT22;56800;52.142;5.364;2023-11-21T00:13:23;8.60;85.20
69595;DHT22;56800;52.142;5.364;2023-11-21T00:15:50;8.60;85.10
69595;DHT22;56800;52.142;5.364;2023-11-21T00:18:17;8.60;85.10
69595;DHT22;56800;52.142;5.364;2023-11-21T00:20:44;8.60;85.10
69595;DHT22;56800;52.142;5.364;2023-11-21T00:23:11;8.60;85.20
69595;DHT22;56800;52.142;5.364;2023-11-21T00:25:37;8.60;85.20
69595;DHT22;56800;52.142;5.364;2023-11-21T00:28:04;8.60;85.30
69595;DHT22;56800;52.142;5.364;2023-11-21T00:30:32;8.60;85.40
69595;DHT22;56800;52.142;5.364;2023-11-21T00:32:59;8.60;85.40
69595;DHT22;56800;52.142;5.364;2023-11-21T00:35:26;8.60;85.40
69595;DHT22;56800;52.142;5.364;2023-11-21T00:37:53;8.60;85.50
69595;DHT22;56800;52.142;5.364;2023-11-21T00:40:20;8.60;85.50
69595;DHT22;56800;52.142;5.364;2023-11-21T00:42:48;8.60;85.50
69595;DHT22;56800;52.142;5.364;2023-11-21T00:45:14;8.60;85.50
69595;DHT22;56800;52.142;5.364;2023-11-21T00:47:41;8.60;85.50
69595;DHT22;56800;52.142;5.364;2023-11-21T00:50:09;8.60;85.60
69595;DHT22;56800;52.142;5.364;2023-11-21T00:52:36;8.60;86.30
69595;DHT22;56800;52.142;5.364;2023-11-21T00:55:04;8.60;85.60
69595;DHT22;56800;52.142;5.364;2023-11-21T00:57:34;8.60;85.60
69595;DHT22;56800;52.142;5.364;2023-11-21T01:00:01;8.60;85.60
69595;DHT22;56800;52.142;5.364;2023-11-21T01:02:28;8.60;85.60
69595;DHT22;56800;52.142;5.364;2023-11-21T01:04:55;8.60;85.60
69595;DHT22;56800;52.142;5.364;2023-11-21T01:07:22;8.60;85.70
69595;DHT22;56800;52.142;5.364;2023-11-21T01:09:49;8.60;85.70
69595;DHT22;56800;52.142;5.364;2023-11-21T01:12:16;8.60;85.70
69595;DHT22;56800;52.142;5.364;2023-11-21T01:14:44;8.60;85.70
69595;DHT22;56800;52.142;5.364;2023-11-21T01:17:12;8.60;85.70
69595;DHT22;56800;52.142;5.364;2023-11-21T01:19:39;8.60;85.70
69595;DHT22;56800;52.142;5.364;2023-11-21T01:22:06;8.60;85.60
69595;DHT22;56800;52.142;5.364;2023-11-21T01:24:33;8.70;85.70
69595;DHT22;56800;52.142;5.364;2023-11-21T01:27:00;8.70;85.70
69595;DHT22;56800;52.142;5.364;2023-11-21T01:29:26;8.60;85.70
69595;DHT22;56800;52.142;5.364;2023-11-21T01:31:54;8.60;85.70
69595;DHT22;56800;52.142;5.364;2023-11-21T01:34:21;8.70;85.80
69595;DHT22;56800;52.142;5.364;2023-11-21T01:36:48;8.70;85.80
69595;DHT22;56800;52.142;5.364;2023-11-21T01:39:15;8.70;85.80
69595;DHT22;56800;52.142;5.364;2023-11-21T01:41:42;8.70;85.80
69595;DHT22;56800;52.142;5.364;2023-11-21T01:44:12;8.70;86.00
69595;DHT22;56800;52.142;5.364;2023-11-21T01:46:40;8.70;85.90
69595;DHT22;56800;52.142;5.364;2023-11-21T01:49:09;8.70;86.00
69595;DHT22;56800;52.142;5.364;2023-11-21T01:51:41;8.70;86.00
69595;DHT22;56800;52.142;5.364;2023-11-21T01:54:10;8.80;86.10
69595;DHT22;56800;52.142;5.364;2023-11-21T01:56:47;8.80;86.10
69595;DHT22;56800;52.142;5.364;2023-11-21T01:59:21;8.80;86.10
69595;DHT22;56800;52.142;5.364;2023-11-21T02:01:48;8.80;86.20
69595;DHT22;56800;52.142;5.364;2023-11-21T02:04:17;8.80;86.20
69595;DHT22;56800;52.142;5.364;2023-11-21T02:06:45;8.90;86.20
69595;DHT22;56800;52.142;5.364;2023-11-21T02:09:11;8.90;86.10
69595;DHT22;56800;52.142;5.364;2023-11-21T02:11:42;8.90;86.10
69595;DHT22;56800;52.142;5.364;2023-11-21T02:14:09;8.90;86.20
69595;DHT22;56800;52.142;5.364;2023-11-21T02:16:36;8.90;86.20
69595;DHT22;56800;52.142;5.364;2023-11-21T02:19:07;8.90;86.30
69595;DHT22;56800;52.142;5.364;2023-11-21T02:21:35;8.90;86.30
69595;DHT22;56800;52.142;5.364;2023-11-21T02:24:07;9.00;86.30
69595;DHT22;56800;52.142;5.364;2023-11-21T02:26:34;9.00;86.30
69595;DHT22;56800;52.142;5.364;2023-11-21T02:29:01;9.00;86.40
69595;DHT22;56800;52.142;5.364;2023-11-21T02:31:31;9.00;86.40
69595;DHT22;56800;52.142;5.364;2023-11-21T02:33:59;9.00;86.30
69595;DHT22;56800;52.142;5.364;2023-11-21T02:36:26;9.00;86.30
69595;DHT22;56800;52.142;5.364;2023-11-21T02:38:53;9.00;86.20
69595;DHT22;56800;52.142;5.364;2023-11-21T02:41:20;9.00;86.20
69595;DHT22;56800;52.142;5.364;2023-11-21T02:43:46;9.00;86.20
69595;DHT22;56800;52.142;5.364;2023-11-21T02:46:13;9.10;86.40
69595;DHT22;56800;52.142;5.364;2023-11-21T02:48:40;9.10;86.40
69595;DHT22;56800;52.142;5.364;2023-11-21T02:51:07;9.10;86.40
69595;DHT22;56800;52.142;5.364;2023-11-21T02:53:33;9.10;86.40
69595;DHT22;56800;52.142;5.364;2023-11-21T02:56:00;9.10;86.40
69595;DHT22;56800;52.142;5.364;2023-11-21T02:58:27;9.10;86.40
69595;DHT22;56800;52.142;5.364;2023-11-21T03:00:54;9.10;86.30
69595;DHT22;56800;52.142;5.364;2023-11-21T03:03:21;9.10;86.30
69595;DHT22;56800;52.142;5.364;2023-11-21T03:05:50;9.10;86.30
69595;DHT22;56800;52.142;5.364;2023-11-21T03:08:17;9.10;86.20
69595;DHT22;56800;52.142;5.364;2023-11-21T03:10:44;9.10;86.20
69595;DHT22;56800;52.142;5.364;2023-11-21T03:13:10;9.10;86.30
69595;DHT22;56800;52.142;5.364;2023-11-21T03:15:37;9.20;86.30
69595;DHT22;56800;52.142;5.364;2023-11-21T03:18:04;9.10;86.20
69595;DHT22;56800;52.142;5.364;2023-11-21T03:20:32;9.10;86.20
69595;DHT22;56800;52.142;5.364;2023-11-21T03:22:58;9.20;86.20
69595;DHT22;56800;52.142;5.364;2023-11-21T03:25:26;9.20;86.20
69595;DHT22;56800;52.142;5.364;2023-11-21T03:27:53;9.20;86.20
69595;DHT22;56800;52.142;5.364;2023-11-21T03:30:20;9.20;86.20
69595;DHT22;56800;52.142;5.364;2023-11-21T03:32:47;9.20;86.20
69595;DHT22;56800;52.142;5.364;2023-11-21T03:35:14;9.20;86.20
69595;DHT22;56800;52.142;5.364;2023-11-21T03:37:41;9.20;86.20
69595;DHT22;56800;52.142;5.364;2023-11-21T03:40:10;9.20;86.20
69595;DHT22;56800;52.142;5.364;2023-11-21T03:42:36;9.20;86.20
69595;DHT22;56800;52.142;5.364;2023-11-21T03:45:04;9.20;86.20
69595;DHT22;56800;52.142;5.364;2023-11-21T03:47:31;9.20;86.20
69595;DHT22;56800;52.142;5.364;2023-11-21T03:49:58;9.20;86.20
69595;DHT22;56800;52.142;5.364;2023-11-21T03:52:25;9.20;86.30
69595;DHT22;56800;52.142;5.364;2023-11-21T03:54:52;9.20;86.30
69595;DHT22;56800;52.142;5.364;2023-11-21T03:57:19;9.20;87.10
69595;DHT22;56800;52.142;5.364;2023-11-21T03:59:45;9.20;86.40
69595;DHT22;56800;52.142;5.364;2023-11-21T04:02:12;9.20;86.40
69595;DHT22;56800;52.142;5.364;2023-11-21T04:04:39;9.20;86.40
69595;DHT22;56800;52.142;5.364;2023-11-21T04:07:06;9.30;86.50
69595;DHT22;56800;52.142;5.364;2023-11-21T04:09:33;9.30;86.50
69595;DHT22;56800;52.142;5.364;2023-11-21T04:11:59;9.30;86.40
69595;DHT22;56800;52.142;5.364;2023-11-21T04:14:26;9.30;86.50
69595;DHT22;56800;52.142;5.364;2023-11-21T04:16:53;9.30;86.50
69595;DHT22;56800;52.142;5.364;2023-11-21T04:19:21;9.30;86.50
69595;DHT22;56800;52.142;5.364;2023-11-21T04:21:48;9.30;86.50
69595;DHT22;56800;52.142;5.364;2023-11-21T04:24:15;9.30;86.50
69595;DHT22;56800;52.142;5.364;2023-11-21T04:26:41;9.30;86.50
69595;DHT22;56800;52.142;5.364;2023-11-21T04:29:08;9.30;86.50
69595;DHT22;56800;52.142;5.364;2023-11-21T04:31:35;9.30;86.50
69595;DHT22;56800;52.142;5.364;2023-11-21T04:34:02;9.30;86.50
69595;DHT22;56800;52.142;5.364;2023-11-21T04:36:30;9.40;86.60
69595;DHT22;56800;52.142;5.364;2023-11-21T04:38:57;9.40;86.70
69595;DHT22;56800;52.142;5.364;2023-11-21T04:41:24;9.40;86.70
69595;DHT22;56800;52.142;5.364;2023-11-21T04:43:51;9.40;86.70
69595;DHT22;56800;52.142;5.364;2023-11-21T04:46:18;9.40;86.60
69595;DHT22;56800;52.142;5.364;2023-11-21T04:48:45;9.40;86.70
69595;DHT22;56800;52.142;5.364;2023-11-21T04:51:12;9.40;86.60
69595;DHT22;56800;52.142;5.364;2023-11-21T04:53:39;9.40;86.70
69595;DHT22;56800;52.142;5.364;2023-11-21T04:56:06;9.40;86.70
69595;DHT22;56800;52.142;5.364;2023-11-21T04:58:33;9.50;86.70
69595;DHT22;56800;52.142;5.364;2023-11-21T05:01:00;9.50;87.60
69595;DHT22;56800;52.142;5.364;2023-11-21T05:03:27;9.50;86.80
69595;DHT22;56800;52.142;5.364;2023-11-21T05:05:56;9.50;86.70
69595;DHT22;56800;52.142;5.364;2023-11-21T05:08:23;9.50;86.70
69595;DHT22;56800;52.142;5.364;2023-11-21T05:10:50;9.50;87.50
69595;DHT22;56800;52.142;5.364;2023-11-21T05:13:17;9.50;86.80
69595;DHT22;56800;52.142;5.364;2023-11-21T05:15:45;9.60;86.90
69595;DHT22;56800;52.142;5.364;2023-11-21T05:18:12;9.60;86.90
69595;DHT22;56800;52.142;5.364;2023-11-21T05:20:40;9.60;86.80
69595;DHT22;56800;52.142;5.364;2023-11-21T05:23:07;9.60;87.00
69595;DHT22;56800;52.142;5.364;2023-11-21T05:25:34;9.60;87.00
69595;DHT22;56800;52.142;5.364;2023-11-21T05:28:06;9.60;87.00
69595;DHT22;56800;52.142;5.364;2023-11-21T05:30:33;9.60;87.00
69595;DHT22;56800;52.142;5.364;2023-11-21T05:33:00;9.60;87.00
69595;DHT22;56800;52.142;5.364;2023-11-21T05:35:27;9.70;87.10
69595;DHT22;56800;52.142;5.364;2023-11-21T05:37:53;9.70;87.10
69595;DHT22;56800;52.142;5.364;2023-11-21T05:40:20;9.70;87.10
69595;DHT22;56800;52.142;5.364;2023-11-21T05:42:48;9.70;87.10
69595;DHT22;56800;52.142;5.364;2023-11-21T05:45:15;9.70;87.20
69595;DHT22;56800;52.142;5.364;2023-11-21T05:47:43;9.70;87.20
69595;DHT22;56800;52.142;5.364;2023-11-21T05:50:14;9.70;87.20
69595;DHT22;56800;52.142;5.364;2023-11-21T05:52:43;9.80;87.20
69595;DHT22;56800;52.142;5.364;2023-11-21T05:55:10;9.80;87.30
69595;DHT22;56800;52.142;5.364;2023-11-21T05:57:38;9.80;87.30
69595;DHT22;56800;52.142;5.364;2023-11-21T06:00:07;9.80;87.30
69595;DHT22;56800;52.142;5.364;2023-11-21T06:02:38;9.80;87.30
69595;DHT22;56800;52.142;5.364;2023-11-21T06:05:09;9.80;88.10
69595;DHT22;56800;52.142;5.364;2023-11-21T06:07:37;9.80;87.40
69595;DHT22;56800;52.142;5.364;2023-11-21T06:10:05;9.90;87.40
69595;DHT22;56800;52.142;5.364;2023-11-21T06:12:39;9.90;87.40
69595;DHT22;56800;52.142;5.364;2023-11-21T06:15:07;9.90;87.30
69595;DHT22;56800;52.142;5.364;2023-11-21T06:17:36;9.90;87.30
69595;DHT22;56800;52.142;5.364;2023-11-21T06:20:04;9.90;87.40
69595;DHT22;56800;52.142;5.364;2023-11-21T06:22:37;9.90;87.50
69595;DHT22;56800;52.142;5.364;2023-11-21T06:25:04;10.00;87.50
69595;DHT22;56800;52.142;5.364;2023-11-21T06:27:32;10.00;87.50
69595;DHT22;56800;52.142;5.364;2023-11-21T06:30:00;10.00;87.40
69595;DHT22;56800;52.142;5.364;2023-11-21T06:32:26;10.00;87.50
69595;DHT22;56800;52.142;5.364;2023-11-21T06:35:03;10.00;87.50
69595;DHT22;56800;52.142;5.364;2023-11-21T06:37:33;10.00;87.40
69595;DHT22;56800;52.142;5.364;2023-11-21T06:40:00;10.00;87.40
69595;DHT22;56800;52.142;5.364;2023-11-21T06:42:27;10.00;87.40
69595;DHT22;56800;52.142;5.364;2023-11-21T06:44:56;10.00;87.50
69595;DHT22;56800;52.142;5.364;2023-11-21T06:47:24;10.00;87.60
69595;DHT22;56800;52.142;5.364;2023-11-21T06:49:56;10.10;87.60
69595;DHT22;56800;52.142;5.364;2023-11-21T06:52:23;10.10;87.60
69595;DHT22;56800;52.142;5.364;2023-11-21T06:54:50;10.10;87.70
69595;DHT22;56800;52.142;5.364;2023-11-21T06:57:16;10.10;87.70
69595;DHT22;56800;52.142;5.364;2023-11-21T06:59:44;10.10;87.60
69595;DHT22;56800;52.142;5.364;2023-11-21T07:02:10;10.10;87.70
69595;DHT22;56800;52.142;5.364;2023-11-21T07:04:37;10.10;87.70
69595;DHT22;56800;52.142;5.364;2023-11-21T07:07:05;10.20;87.80
69595;DHT22;56800;52.142;5.364;2023-11-21T07:09:33;10.20;87.80
69595;DHT22;56800;52.142;5.364;2023-11-21T07:12:00;10.20;87.90
69595;DHT22;56800;52.142;5.364;2023-11-21T07:14:26;10.20;87.70
69595;DHT22;56800;52.142;5.364;2023-11-21T07:16:53;10.20;87.70
69595;DHT22;56800;52.142;5.364;2023-11-21T07:19:20;10.20;87.80
69595;DHT22;56800;52.142;5.364;2023-11-21T07:21:48;10.20;87.90
69595;DHT22;56800;52.142;5.364;2023-11-21T07:24:17;10.20;87.90
69595;DHT22;56800;52.142;5.364;2023-11-21T07:26:44;10.20;88.00
69595;DHT22;56800;52.142;5.364;2023-11-21T07:29:11;10.20;88.00
69595;DHT22;56800;52.142;5.364;2023-11-21T07:31:38;10.30;88.10
69595;DHT22;56800;52.142;5.364;2023-11-21T07:34:05;10.30;88.10
69595;DHT22;56800;52.142;5.364;2023-11-21T07:36:32;10.30;88.10
69595;DHT22;56800;52.142;5.364;2023-11-21T07:38:59;10.30;88.10
69595;DHT22;56800;52.142;5.364;2023-11-21T07:41:25;10.40;88.10
69595;DHT22;56800;52.142;5.364;2023-11-21T07:43:57;10.40;88.10
69595;DHT22;56800;52.142;5.364;2023-11-21T07:46:26;10.40;88.10
69595;DHT22;56800;52.142;5.364;2023-11-21T07:48:53;10.40;88.10
69595;DHT22;56800;52.142;5.364;2023-11-21T07:51:21;10.50;88.20
69595;DHT22;56800;52.142;5.364;2023-11-21T07:53:48;10.50;88.90
69595;DHT22;56800;52.142;5.364;2023-11-21T07:56:16;10.50;88.30
69595;DHT22;56800;52.142;5.364;2023-11-21T07:58:43;10.50;88.20
69595;DHT22;56800;52.142;5.364;2023-11-21T08:01:11;10.50;88.20
69595;DHT22;56800;52.142;5.364;2023-11-21T08:03:38;10.60;88.20
69595;DHT22;56800;52.142;5.364;2023-11-21T08:06:05;10.60;88.20
69595;DHT22;56800;52.142;5.364;2023-11-21T08:08:33;10.60;88.30
69595;DHT22;56800;52.142;5.364;2023-11-21T08:11:00;10.60;88.20
69595;DHT22;56800;52.142;5.364;2023-11-21T08:13:29;10.70;88.30
69595;DHT22;56800;52.142;5.364;2023-11-21T08:15:57;10.70;88.30
69595;DHT22;56800;52.142;5.364;2023-11-21T08:18:29;10.70;88.30
69595;DHT22;56800;52.142;5.364;2023-11-21T08:20:56;10.70;88.30
69595;DHT22;56800;52.142;5.364;2023-11-21T08:23:23;10.80;88.40
69595;DHT22;56800;52.142;5.364;2023-11-21T08:25:53;10.80;88.30
69595;DHT22;56800;52.142;5.364;2023-11-21T08:28:21;10.80;88.30
69595;DHT22;56800;52.142;5.364;2023-11-21T08:30:53;10.80;88.30
69595;DHT22;56800;52.142;5.364;2023-11-21T08:33:20;10.90;88.30
69595;DHT22;56800;52.142;5.364;2023-11-21T08:35:47;10.90;88.30
69595;DHT22;56800;52.142;5.364;2023-11-21T08:38:14;10.90;88.40
69595;DHT22;56800;52.142;5.364;2023-11-21T08:40:41;10.90;89.10
69595;DHT22;56800;52.142;5.364;2023-11-21T08:43:08;11.00;88.40
69595;DHT22;56800;52.142;5.364;2023-11-21T08:45:34;11.00;88.40
69595;DHT22;56800;52.142;5.364;2023-11-21T08:48:02;11.00;88.40
69595;DHT22;56800;52.142;5.364;2023-11-21T08:50:29;11.00;88.40
69595;DHT22;56800;52.142;5.364;2023-11-21T08:52:56;11.10;88.40
69595;DHT22;56800;52.142;5.364;2023-11-21T08:55:22;11.10;88.50
69595;DHT22;56800;52.142;5.364;2023-11-21T08:57:49;11.10;89.10
69595;DHT22;56800;52.142;5.364;2023-11-21T09:00:17;11.10;88.40
69595;DHT22;56800;52.142;5.364;2023-11-21T09:02:45;11.20;89.30
69595;DHT22;56800;52.142;5.364;2023-11-21T09:05:13;11.20;88.80
69595;DHT22;56800;52.142;5.364;2023-11-21T09:07:41;11.30;88.90
69595;DHT22;56800;52.142;5.364;2023-11-21T09:10:08;11.30;88.80
69595;DHT22;56800;52.142;5.364;2023-11-21T09:12:37;11.40;88.70
69595;DHT22;56800;52.142;5.364;2023-11-21T09:15:05;11.40;88.60
69595;DHT22;56800;52.142;5.364;2023-11-21T09:17:33;11.40;88.70
69595;DHT22;56800;52.142;5.364;2023-11-21T09:20:04;11.40;88.50
69595;DHT22;56800;52.142;5.364;2023-11-21T09:22:32;11.50;88.60
69595;DHT22;56800;52.142;5.364;2023-11-21T09:25:00;11.50;88.50
69595;DHT22;56800;52.142;5.364;2023-11-21T09:27:26;11.50;88.40
69595;DHT22;56800;52.142;5.364;2023-11-21T09:29:53;11.50;88.20
69595;DHT22;56800;52.142;5.364;2023-11-21T09:32:20;11.50;88.10
69595;DHT22;56800;52.142;5.364;2023-11-21T09:34:50;11.50;88.10
69595;DHT22;56800;52.142;5.364;2023-11-21T09:37:17;11.50;88.00
69595;DHT22;56800;52.142;5.364;2023-11-21T09:39:45;11.50;88.00
69595;DHT22;56800;52.142;5.364;2023-11-21T09:42:19;11.50;88.00
69595;DHT22;56800;52.142;5.364;2023-11-21T09:47:41;11.50;87.90
69595;DHT22;56800;52.142;5.364;2023-11-21T09:50:09;11.40;87.80
69595;DHT22;56800;52.142;5.364;2023-11-21T09:53:03;11.50;87.80
69595;DHT22;56800;52.142;5.364;2023-11-21T09:55:35;11.50;87.90
69595;DHT22;56800;52.142;5.364;2023-11-21T09:58:04;11.40;87.70
69595;DHT22;56800;52.142;5.364;2023-11-21T10:00:34;11.40;87.70
69595;DHT22;56800;52.142;5.364;2023-11-21T10:03:01;11.40;87.70
69595;DHT22;56800;52.142;5.364;2023-11-21T10:05:29;11.40;87.70
69595;DHT22;56800;52.142;5.364;2023-11-21T10:07:56;11.40;87.60
69595;DHT22;56800;52.142;5.364;2023-11-21T10:10:25;11.40;87.60
69595;DHT22;56800;52.142;5.364;2023-11-21T10:12:55;11.40;87.60
69595;DHT22;56800;52.142;5.364;2023-11-21T10:15:23;11.40;87.70
69595;DHT22;56800;52.142;5.364;2023-11-21T10:17:52;11.40;87.70
69595;DHT22;56800;52.142;5.364;2023-11-21T10:20:20;11.40;87.80
69595;DHT22;56800;52.142;5.364;2023-11-21T10:22:47;11.40;87.70
69595;DHT22;56800;52.142;5.364;2023-11-21T10:25:14;11.40;87.70
69595;DHT22;56800;52.142;5.364;2023-11-21T10:27:41;11.50;87.80
69595;DHT22;56800;52.142;5.364;2023-11-21T10:30:10;11.40;87.50
69595;DHT22;56800;52.142;5.364;2023-11-21T10:32:39;11.50;87.50
69595;DHT22;56800;52.142;5.364;2023-11-21T10:35:08;11.50;87.50
69595;DHT22;56800;52.142;5.364;2023-11-21T10:37:40;11.50;87.40
69595;DHT22;56800;52.142;5.364;2023-11-21T10:40:07;11.50;87.20
69595;DHT22;56800;52.142;5.364;2023-11-21T10:42:41;11.40;87.00
69595;DHT22;56800;52.142;5.364;2023-11-21T10:45:09;11.40;87.00
69595;DHT22;56800;52.142;5.364;2023-11-21T10:47:41;11.40;87.00
69595;DHT22;56800;52.142;5.364;2023-11-21T10:50:09;11.40;86.90
69595;DHT22;56800;52.142;5.364;2023-11-21T10:52:41;11.40;86.90
69595;DHT22;56800;52.142;5.364;2023-11-21T10:55:18;11.30;86.90
69595;DHT22;56800;52.142;5.364;2023-11-21T10:57:51;11.30;86.80
69595;DHT22;56800;52.142;5.364;2023-11-21T11:00:19;11.30;86.80
69595;DHT22;56800;52.142;5.364;2023-11-21T11:02:53;11.30;86.80
69595;DHT22;56800;52.142;5.364;2023-11-21T11:05:23;11.30;86.80
69595;DHT22;56800;52.142;5.364;2023-11-21T11:07:59;11.30;86.90
69595;DHT22;56800;52.142;5.364;2023-11-21T11:10:30;11.30;87.00
69595;DHT22;56800;52.142;5.364;2023-11-21T11:12:58;11.30;87.00
69595;DHT22;56800;52.142;5.364;2023-11-21T11:15:26;11.30;86.90
69595;DHT22;56800;52.142;5.364;2023-11-21T11:17:54;11.30;86.80
69595;DHT22;56800;52.142;5.364;2023-11-21T11:20:33;11.40;86.80
69595;DHT22;56800;52.142;5.364;2023-11-21T11:26:42;11.30;86.80
69595;DHT22;56800;52.142;5.364;2023-11-21T11:34:44;11.30;86.70
69595;DHT22;56800;52.142;5.364;2023-11-21T11:37:12;11.30;86.70
69595;DHT22;56800;52.142;5.364;2023-11-21T11:39:43;11.30;86.70
69595;DHT22;56800;52.142;5.364;2023-11-21T11:42:15;11.30;86.70
69595;DHT22;56800;52.142;5.364;2023-11-21T11:47:29;11.30;86.80
69595;DHT22;56800;52.142;5.364;2023-11-21T11:52:38;11.30;86.80
69595;DHT22;56800;52.142;5.364;2023-11-21T11:55:08;11.30;86.70
69595;DHT22;56800;52.142;5.364;2023-11-21T11:57:39;11.30;86.80
69595;DHT22;56800;52.142;5.364;2023-11-21T12:00:19;11.30;86.90
69595;DHT22;56800;52.142;5.364;2023-11-21T12:02:49;11.40;86.90
69595;DHT22;56800;52.142;5.364;2023-11-21T12:05:17;11.40;86.90
69595;DHT22;56800;52.142;5.364;2023-11-21T12:07:49;11.40;87.00
69595;DHT22;56800;52.142;5.364;2023-11-21T12:10:19;11.40;87.00
69595;DHT22;56800;52.142;5.364;2023-11-21T12:12:51;11.50;86.80
69595;DHT22;56800;52.142;5.364;2023-11-21T12:15:19;11.50;86.70
69595;DHT22;56800;52.142;5.364;2023-11-21T12:17:46;11.50;86.60
69595;DHT22;56800;52.142;5.364;2023-11-21T12:20:13;11.50;86.60
69595;DHT22;56800;52.142;5.364;2023-11-21T12:22:49;11.40;86.40
69595;DHT22;56800;52.142;5.364;2023-11-21T12:25:17;11.40;86.50
69595;DHT22;56800;52.142;5.364;2023-11-21T12:27:47;11.40;86.50
69595;DHT22;56800;52.142;5.364;2023-11-21T12:30:17;11.40;86.40
69595;DHT22;56800;52.142;5.364;2023-11-21T12:32:45;11.40;86.30
69595;DHT22;56800;52.142;5.364;2023-11-21T12:35:15;11.40;86.30
69595;DHT22;56800;52.142;5.364;2023-11-21T12:37:46;11.40;86.30
69595;DHT22;56800;52.142;5.364;2023-11-21T12:40:14;11.40;86.20
69595;DHT22;56800;52.142;5.364;2023-11-21T12:42:48;11.40;86.20
69595;DHT22;56800;52.142;5.364;2023-11-21T12:45:22;11.30;86.20
69595;DHT22;56800;52.142;5.364;2023-11-21T12:47:55;11.30;86.20
69595;DHT22;56800;52.142;5.364;2023-11-21T12:50:23;11.40;86.30
69595;DHT22;56800;52.142;5.364;2023-11-21T12:52:51;11.40;86.20
69595;DHT22;56800;52.142;5.364;2023-11-21T12:55:23;11.40;86.20
69595;DHT22;56800;52.142;5.364;2023-11-21T12:57:54;11.40;86.20
69595;DHT22;56800;52.142;5.364;2023-11-21T13:00:31;11.40;86.20
69595;DHT22;56800;52.142;5.364;2023-11-21T13:03:00;11.40;86.00
69595;DHT22;56800;52.142;5.364;2023-11-21T13:05:32;11.40;86.10
69595;DHT22;56800;52.142;5.364;2023-11-21T13:08:02;11.40;86.20
69595;DHT22;56800;52.142;5.364;2023-11-21T13:10:31;11.50;86.30
69595;DHT22;56800;52.142;5.364;2023-11-21T13:12:58;11.40;86.10
69595;DHT22;56800;52.142;5.364;2023-11-21T13:15:27;11.50;86.10
69595;DHT22;56800;52.142;5.364;2023-11-21T13:17:54;11.50;86.10
69595;DHT22;56800;52.142;5.364;2023-11-21T13:20:24;11.50;86.00
69595;DHT22;56800;52.142;5.364;2023-11-21T13:22:54;11.50;86.10
69595;DHT22;56800;52.142;5.364;2023-11-21T13:25:24;11.50;86.00
69595;DHT22;56800;52.142;5.364;2023-11-21T13:27:54;11.50;86.00
69595;DHT22;56800;52.142;5.364;2023-11-21T13:30:22;11.50;85.90
69595;DHT22;56800;52.142;5.364;2023-11-21T13:32:54;11.50;85.90
69595;DHT22;56800;52.142;5.364;2023-11-21T13:35:24;11.50;85.80
69595;DHT22;56800;52.142;5.364;2023-11-21T13:38:05;11.50;85.70
69595;DHT22;56800;52.142;5.364;2023-11-21T13:40:33;11.50;85.80
69595;DHT22;56800;52.142;5.364;2023-11-21T13:43:10;11.40;85.70
69595;DHT22;56800;52.142;5.364;2023-11-21T13:45:37;11.40;85.60
69595;DHT22;56800;52.142;5.364;2023-11-21T13:48:10;11.40;85.60
69595;DHT22;56800;52.142;5.364;2023-11-21T13:50:40;11.40;85.50
69595;DHT22;56800;52.142;5.364;2023-11-21T13:53:15;11.40;85.50
69595;DHT22;56800;52.142;5.364;2023-11-21T13:55:52;11.30;85.40
69595;DHT22;56800;52.142;5.364;2023-11-21T13:58:24;11.30;85.40
69595;DHT22;56800;52.142;5.364;2023-11-21T14:01:06;11.30;85.30
69595;DHT22;56800;52.142;5.364;2023-11-21T14:03:39;11.20;85.20
69595;DHT22;56800;52.142;5.364;2023-11-21T14:06:17;11.20;85.20
69595;DHT22;56800;52.142;5.364;2023-11-21T14:08:50;11.20;85.20
69595;DHT22;56800;52.142;5.364;2023-11-21T14:11:18;11.10;85.20
69595;DHT22;56800;52.142;5.364;2023-11-21T14:13:50;11.10;85.20
69595;DHT22;56800;52.142;5.364;2023-11-21T14:16:16;11.10;85.20
69595;DHT22;56800;52.142;5.364;2023-11-21T14:18:44;11.10;85.10
69595;DHT22;56800;52.142;5.364;2023-11-21T14:21:22;11.00;85.00
69595;DHT22;56800;52.142;5.364;2023-11-21T14:23:48;11.00;84.90
69595;DHT22;56800;52.142;5.364;2023-11-21T14:26:15;11.00;85.00
69595;DHT22;56800;52.142;5.364;2023-11-21T14:28:43;10.90;85.00
69595;DHT22;56800;52.142;5.364;2023-11-21T14:31:10;10.90;85.10
69595;DHT22;56800;52.142;5.364;2023-11-21T14:33:40;11.00;85.30
69595;DHT22;56800;52.142;5.364;2023-11-21T14:36:08;10.90;85.10
69595;DHT22;56800;52.142;5.364;2023-11-21T14:38:36;10.90;85.10
69595;DHT22;56800;52.142;5.364;2023-11-21T14:41:06;10.90;85.10
69595;DHT22;56800;52.142;5.364;2023-11-21T14:43:38;10.80;84.90
69595;DHT22;56800;52.142;5.364;2023-11-21T14:46:05;10.80;84.70
69595;DHT22;56800;52.142;5.364;2023-11-21T14:48:36;10.80;84.80
69595;DHT22;56800;52.142;5.364;2023-11-21T14:51:23;10.80;84.70
69595;DHT22;56800;52.142;5.364;2023-11-21T14:53:54;10.70;84.70
69595;DHT22;56800;52.142;5.364;2023-11-21T14:56:21;10.70;84.70
69595;DHT22;56800;52.142;5.364;2023-11-21T14:58:53;10.70;84.50
69595;DHT22;56800;52.142;5.364;2023-11-21T15:01:25;10.60;84.50
69595;DHT22;56800;52.142;5.364;2023-11-21T15:04:11;10.50;84.40
69595;DHT22;56800;52.142;5.364;2023-11-21T15:06:57;10.50;84.50
69595;DHT22;56800;52.142;5.364;2023-11-21T15:09:25;10.40;84.30
69595;DHT22;56800;52.142;5.364;2023-11-21T15:12:01;10.40;84.40
69595;DHT22;56800;52.142;5.364;2023-11-21T15:14:50;10.30;84.40
69595;DHT22;56800;52.142;5.364;2023-11-21T15:17:20;10.30;84.40
69595;DHT22;56800;52.142;5.364;2023-11-21T15:19:53;10.30;84.50
69595;DHT22;56800;52.142;5.364;2023-11-21T15:22:20;10.30;84.40
69595;DHT22;56800;52.142;5.364;2023-11-21T15:24:48;10.30;84.30
69595;DHT22;56800;52.142;5.364;2023-11-21T15:27:17;10.30;84.30
69595;DHT22;56800;52.142;5.364;2023-11-21T15:29:44;10.20;84.10
69595;DHT22;56800;52.142;5.364;2023-11-21T15:32:11;10.20;84.00
69595;DHT22;56800;52.142;5.364;2023-11-21T15:34:39;10.20;83.80
69595;DHT22;56800;52.142;5.364;2023-11-21T15:37:07;10.20;83.80
69595;DHT22;56800;52.142;5.364;2023-11-21T15:39:38;10.10;83.70
69595;DHT22;56800;52.142;5.364;2023-11-21T15:42:05;10.10;83.60
69595;DHT22;56800;52.142;5.364;2023-11-21T15:44:33;10.10;83.60
69595;DHT22;56800;52.142;5.364;2023-11-21T15:47:00;10.00;83.60
69595;DHT22;56800;52.142;5.364;2023-11-21T15:49:33;10.00;83.40
69595;DHT22;56800;52.142;5.364;2023-11-21T15:52:04;10.00;83.40
69595;DHT22;56800;52.142;5.364;2023-11-21T15:54:33;9.90;83.20
69595;DHT22;56800;52.142;5.364;2023-11-21T15:57:01;9.90;83.30
69595;DHT22;56800;52.142;5.364;2023-11-21T15:59:30;9.80;83.00
69595;DHT22;56800;52.142;5.364;2023-11-21T16:01:59;9.80;82.90
69595;DHT22;56800;52.142;5.364;2023-11-21T16:04:26;9.70;82.80